Wylie, Texas
Current Conditions -  °F | °C
As of 5:15 PM on Wednesday 17 Dec 2014 (Local Time) from KF46 Reporting Station
Heavy Rain Heavy Rain  
Wind Chill: 42°   Ceiling: 4000
Heat Index: 42°   Visibility: 7mi
Dew Point: 41°   Wind: 3mph
Humidity: 93%   Direction: 350°N
Pressure: 30.14"   Gusts: NA
Location:  33.02°N, 96.51°W
Report Text: KF46 172315Z AUTO 35003KT 7SM +RA OVC040 06/05 A3014 RMK AO2 LTG DSNT SW P0002 T00580048
Loading
Personal Weather Stations






























Interactive Weather Map New forecast layout! Learn more

10-Day Weather Forecast

Advertisements
Track Severe Weather on mobile